EFSA

Savonlinna Airport

Airport
ICAO code
EFSA
IATA Code
SVL
Summary
ICAO Region
EUR
ICAO Territory
Location

Makkola, Saimaa Lakes region

Serving
Savonlinna
Elevation
311 ft
Coordinates
61° 56' 34" N , 28° 56' 42" E
KCC
Metar
EFSA 250350Z AUTO 32007KT 9999 FEW008 17/15 Q1022

Savonlinna Airport in Finland is about 9 nm north of Savonlinna town centre along the Enonkoskentie road.

Climatology

Cool humid continental climate (Köppen climate classification Dfc)

Runways

Designator Length Width Surface Rops
12/30 2300 45 ASP No/No

Airport map

Aerial View

Airport accidents

SKYbrary Partners:

Safety knowledge contributed by: